Terminal Aerodrome Forecast
Issued by NWS

Home | Current Version | Previous Version | Text Only | Print | Product List | Glossary On
Versions: 1 2 3 4 5 6 7 8 9 10 11 12 13 14 15 16 17 18 19 20
000
FTUS46 KSEW 241700
TAFPAE
TAF
KPAE 241725Z 2418/2518 12006KT P6SM FEW130 BKN230
     FM242200 03006KT P6SM SCT130 OVC230
     FM250400 05005KT P6SM -RA OVC080
     FM250700 05009KT P6SM -RA OVC040
     FM251300 07008KT 3SM -RA BR OVC010=

USA.gov is the U.S. government's official web portal to all federal, state and local government web resources and services.